createdAt,value
2017-02-28T00:00:45.811Z,38.6
2017-02-28T00:03:18.297Z,38.5
2017-02-28T00:05:50.781Z,38.5
2017-02-28T00:08:23.278Z,38.6
2017-02-28T00:10:55.763Z,38.6
2017-02-28T00:13:28.246Z,38.5
2017-02-28T00:16:00.726Z,38.6
2017-02-28T00:18:33.636Z,38.6
2017-02-28T00:21:06.140Z,38.5
2017-02-28T00:23:39.065Z,38.5
2017-02-28T00:26:11.537Z,38.5
2017-02-28T00:28:44.457Z,38.5
2017-02-28T00:31:17.383Z,38.6
2017-02-28T00:33:49.863Z,38.5
2017-02-28T00:36:22.371Z,38.5
2017-02-28T00:38:55.273Z,38.5
2017-02-28T00:41:27.767Z,38.5
2017-02-28T00:44:00.679Z,38.5
2017-02-28T00:46:33.183Z,38.5
2017-02-28T00:49:05.667Z,38.5
2017-02-28T00:51:38.147Z,38.5
2017-02-28T00:54:10.623Z,38.6
2017-02-28T00:56:43.132Z,38.5
2017-02-28T00:59:15.610Z,38.5
2017-02-28T01:01:48.092Z,38.5
2017-02-28T01:04:20.592Z,38.4
2017-02-28T01:06:53.393Z,38.5
2017-02-28T01:09:25.882Z,38.5
2017-02-28T01:11:58.368Z,38.5
2017-02-28T01:14:30.871Z,38.5
2017-02-28T01:17:03.363Z,38.4
2017-02-28T01:19:35.837Z,38.5
2017-02-28T01:22:08.323Z,38.5
2017-02-28T01:24:40.853Z,38.5
2017-02-28T01:27:13.333Z,38.5
2017-02-28T01:29:45.843Z,38.5
2017-02-28T01:32:18.349Z,38.5
2017-02-28T01:34:50.844Z,38.5
2017-02-28T01:37:23.327Z,38.5
2017-02-28T01:39:55.824Z,38.5
2017-02-28T01:42:28.304Z,38.4
2017-02-28T01:45:00.779Z,38.5
2017-02-28T01:47:33.276Z,38.5
2017-02-28T01:50:05.773Z,38.4
2017-02-28T01:52:38.258Z,38.4
2017-02-28T01:55:10.742Z,38.4
2017-02-28T01:57:43.204Z,38.5
2017-02-28T02:00:15.689Z,38.5
2017-02-28T02:02:48.173Z,38.5
2017-02-28T02:05:21.537Z,38.4
2017-02-28T02:07:54.021Z,38.4
2017-02-28T02:10:26.497Z,38.4
2017-02-28T02:12:58.981Z,38.4
2017-02-28T02:15:31.885Z,38.5
2017-02-28T02:18:04.380Z,38.4
2017-02-28T02:20:36.859Z,38.5
2017-02-28T02:23:09.341Z,38.5
2017-02-28T02:25:42.261Z,38.5
2017-02-28T02:28:14.752Z,38.4
2017-02-28T02:30:47.683Z,38.4
2017-02-28T02:33:20.184Z,38.5
2017-02-28T02:35:53.525Z,38.4
2017-02-28T02:38:26.444Z,38.4
2017-02-28T02:40:58.923Z,38.4
2017-02-28T02:43:31.421Z,38.4
2017-02-28T02:46:03.916Z,38.5
2017-02-28T02:48:36.411Z,38.4
2017-02-28T02:51:08.926Z,38.4
2017-02-28T02:53:41.838Z,38.4
2017-02-28T02:56:14.323Z,38.4
2017-02-28T02:58:46.811Z,38.5
2017-02-28T03:01:19.339Z,38.4
2017-02-28T03:03:51.817Z,38.4
2017-02-28T03:06:24.310Z,38.4
2017-02-28T03:08:56.796Z,38.4
2017-02-28T03:11:29.293Z,38.4
2017-02-28T03:14:01.774Z,38.4
2017-02-28T03:16:34.701Z,38.4
2017-02-28T03:19:07.179Z,38.4
2017-02-28T03:21:40.107Z,38.4
2017-02-28T03:24:12.612Z,38.3
2017-02-28T03:26:45.516Z,38.4
2017-02-28T03:29:17.993Z,38.4
2017-02-28T03:31:51.346Z,38.4
2017-02-28T03:34:23.828Z,38.3
2017-02-28T03:36:56.313Z,38.3
2017-02-28T03:39:28.791Z,38.3
2017-02-28T03:42:01.273Z,38.4
2017-02-28T03:44:33.757Z,38.3
2017-02-28T03:47:06.676Z,38.3
2017-02-28T03:49:39.160Z,38.3
2017-02-28T03:52:11.647Z,38.3
2017-02-28T03:54:44.162Z,38.3
2017-02-28T03:57:18.138Z,38.3
2017-02-28T03:59:50.641Z,38.3
2017-02-28T04:02:23.331Z,38.3
2017-02-28T04:04:55.811Z,38.2
2017-02-28T04:07:28.300Z,38.2
2017-02-28T04:10:00.782Z,38.4
2017-02-28T04:12:33.708Z,38.2
2017-02-28T04:15:06.194Z,38.3
2017-02-28T04:17:38.681Z,38.2
2017-02-28T04:20:12.026Z,38.2
2017-02-28T04:22:44.941Z,38.3
2017-02-28T04:25:17.421Z,38.2
2017-02-28T04:27:49.904Z,38.2
2017-02-28T04:30:22.408Z,38.3
2017-02-28T04:32:55.338Z,38.2
2017-02-28T04:35:28.674Z,38.2
2017-02-28T04:38:01.584Z,38.1
2017-02-28T04:40:34.071Z,38.1
2017-02-28T04:43:06.557Z,38
2017-02-28T04:45:39.058Z,38.1
2017-02-28T04:48:11.557Z,38
2017-02-28T04:50:44.037Z,38.1
2017-02-28T04:53:16.536Z,38.1
2017-02-28T04:55:49.026Z,38.1
2017-02-28T04:58:21.551Z,38.2
2017-02-28T05:00:54.050Z,38.1
2017-02-28T05:03:26.553Z,38
2017-02-28T05:05:59.025Z,38
2017-02-28T05:08:31.951Z,38.1
2017-02-28T05:11:04.432Z,38.1
2017-02-28T05:13:36.927Z,38.2
2017-02-28T05:16:09.436Z,38.1
2017-02-28T05:18:41.918Z,38.1
2017-02-28T05:21:14.403Z,38.1
2017-02-28T05:23:46.897Z,38.2
2017-02-28T05:26:19.395Z,38.2
2017-02-28T05:28:52.350Z,38.3
2017-02-28T05:31:24.851Z,38.1
2017-02-28T05:33:57.333Z,38.1
2017-02-28T05:36:29.845Z,38.2
2017-02-28T05:39:02.792Z,38.2
2017-02-28T05:41:35.730Z,38.3
2017-02-28T05:44:08.225Z,38.3
2017-02-28T05:46:41.135Z,38.3
2017-02-28T05:49:13.613Z,38.3
2017-02-28T05:51:46.538Z,38.2
2017-02-28T05:54:19.054Z,38.4
2017-02-28T05:56:52.378Z,38.4
2017-02-28T05:59:25.309Z,38.3
2017-02-28T06:01:57.811Z,38.1
2017-02-28T06:04:30.300Z,38
2017-02-28T06:07:02.786Z,38
2017-02-28T06:09:35.269Z,37.9
2017-02-28T06:12:08.177Z,37.6
2017-02-28T06:14:40.660Z,35.8
2017-02-28T06:17:13.136Z,35.3
2017-02-28T06:19:45.662Z,35.6
2017-02-28T06:22:18.590Z,36.5
2017-02-28T06:24:51.108Z,37.2
2017-02-28T06:27:23.612Z,37.5
2017-02-28T06:29:56.552Z,37.6
2017-02-28T06:32:29.060Z,37.7
2017-02-28T06:35:02.405Z,37.6
2017-02-28T06:37:34.911Z,37.6
2017-02-28T06:40:07.415Z,37.6
2017-02-28T06:42:40.683Z,37.7
2017-02-28T06:45:22.198Z,37.7
2017-02-28T06:47:54.742Z,37.7
2017-02-28T06:50:27.692Z,37.8
2017-02-28T06:53:00.182Z,38
2017-02-28T06:55:32.683Z,38
2017-02-28T06:58:05.583Z,38
2017-02-28T07:00:38.083Z,38.1
2017-02-28T07:03:11.001Z,38.1
2017-02-28T07:05:43.494Z,37.9
2017-02-28T07:08:15.996Z,37.9
2017-02-28T07:10:48.497Z,38
2017-02-28T07:13:20.985Z,38
2017-02-28T07:15:53.480Z,38.1
2017-02-28T07:18:25.958Z,38.1
2017-02-28T07:20:58.883Z,38.1
2017-02-28T07:23:31.362Z,38.2
2017-02-28T07:26:03.855Z,38.2
2017-02-28T07:28:36.777Z,38.2
2017-02-28T07:31:09.241Z,38.1
2017-02-28T07:33:41.717Z,38.1
2017-02-28T07:36:14.201Z,38
2017-02-28T07:38:46.673Z,38.1
2017-02-28T07:41:19.161Z,38
2017-02-28T07:43:51.653Z,38
2017-02-28T07:46:24.139Z,37.9
2017-02-28T07:48:57.062Z,37.9
2017-02-28T07:51:30.848Z,37.9
2017-02-28T07:54:03.333Z,38
2017-02-28T07:56:35.815Z,37.9
2017-02-28T07:59:08.334Z,37.9
2017-02-28T08:01:40.851Z,37.9
2017-02-28T08:04:13.328Z,37.9
2017-02-28T08:06:46.262Z,37.9
2017-02-28T08:09:18.760Z,37.8
2017-02-28T08:11:51.249Z,37.8
2017-02-28T08:14:23.771Z,37.8
2017-02-28T08:16:56.659Z,37.9
2017-02-28T08:19:29.149Z,37.9
2017-02-28T08:22:01.640Z,37.9
2017-02-28T08:24:34.128Z,37.9
2017-02-28T08:27:06.612Z,38
2017-02-28T08:29:39.071Z,37.9
2017-02-28T08:32:11.575Z,38
2017-02-28T08:34:44.495Z,37.9
2017-02-28T08:37:16.989Z,38
2017-02-28T08:39:49.496Z,38
2017-02-28T08:42:22.442Z,38
2017-02-28T08:44:55.382Z,37.9
2017-02-28T08:47:28.068Z,38
2017-02-28T08:50:00.548Z,37.9
2017-02-28T08:52:33.045Z,37.9
2017-02-28T08:55:05.577Z,38
2017-02-28T08:57:38.091Z,38
2017-02-28T09:00:10.600Z,37.9
2017-02-28T09:02:43.095Z,37.9
2017-02-28T09:05:15.571Z,38
2017-02-28T09:07:48.072Z,38
2017-02-28T09:10:20.769Z,37.9
2017-02-28T09:12:53.284Z,37.9
2017-02-28T09:15:25.791Z,37.9
2017-02-28T09:17:58.730Z,37.9
2017-02-28T09:20:31.209Z,37.9
2017-02-28T09:23:03.692Z,37.8
2017-02-28T09:25:36.618Z,37.9
2017-02-28T09:28:09.092Z,38.1
2017-02-28T09:30:41.588Z,38
2017-02-28T09:33:14.081Z,38.1
2017-02-28T09:35:46.590Z,38.2
2017-02-28T09:38:19.083Z,36.6
2017-02-28T09:40:51.587Z,36.6
2017-02-28T09:43:24.525Z,37.4
2017-02-28T09:45:57.020Z,38.3
2017-02-28T09:48:29.916Z,38.8
2017-02-28T09:51:02.409Z,39.1
2017-02-28T09:53:34.898Z,39.6
2017-02-28T09:56:07.397Z,39.3
2017-02-28T09:58:39.882Z,39.4
2017-02-28T10:01:12.378Z,39.5
2017-02-28T10:03:44.857Z,39.5
2017-02-28T10:06:17.350Z,39.7
2017-02-28T10:08:49.829Z,39.8
2017-02-28T10:11:22.325Z,40
2017-02-28T10:13:54.812Z,40.2
2017-02-28T10:16:27.307Z,40.3
2017-02-28T10:18:59.794Z,40.4
2017-02-28T10:21:32.273Z,40.5
2017-02-28T10:24:05.199Z,40.6
2017-02-28T10:26:37.704Z,40.6
2017-02-28T10:29:10.649Z,38.4
2017-02-28T10:31:43.151Z,37.3
2017-02-28T10:34:15.626Z,35.9
2017-02-28T10:36:48.555Z,35.4
2017-02-28T10:39:21.036Z,34.9
2017-02-28T10:41:53.548Z,34.2
2017-02-28T10:44:26.051Z,33.6
2017-02-28T10:46:58.961Z,35.2
2017-02-28T10:49:31.507Z,33.5
2017-02-28T10:52:03.990Z,33.2
2017-02-28T10:54:36.480Z,33.7
2017-02-28T10:57:08.987Z,35.1
2017-02-28T10:59:41.462Z,36.1
2017-02-28T11:02:14.366Z,36.5
2017-02-28T11:04:46.857Z,36.9
2017-02-28T11:07:19.337Z,37.1
2017-02-28T11:09:51.838Z,37.3
2017-02-28T11:12:24.738Z,37.5
2017-02-28T11:14:57.225Z,37.6
2017-02-28T11:17:29.711Z,37.6
2017-02-28T11:20:02.227Z,37.7
2017-02-28T11:22:35.125Z,37.7
2017-02-28T11:25:07.647Z,38
2017-02-28T11:27:40.134Z,38
2017-02-28T11:30:12.641Z,38
2017-02-28T11:32:45.136Z,38
2017-02-28T11:35:17.628Z,38
2017-02-28T11:37:50.114Z,38
2017-02-28T11:40:22.636Z,38
2017-02-28T11:42:55.128Z,38
2017-02-28T11:45:27.637Z,38
2017-02-28T11:48:00.151Z,38
2017-02-28T11:50:32.651Z,38
2017-02-28T11:53:05.151Z,38
2017-02-28T11:55:37.634Z,38
2017-02-28T11:58:10.127Z,38
2017-02-28T12:00:42.608Z,38
2017-02-28T12:03:15.109Z,38
2017-02-28T12:05:47.623Z,38
2017-02-28T12:08:20.138Z,38
2017-02-28T12:10:52.629Z,38
2017-02-28T12:13:25.141Z,38.1
2017-02-28T12:15:57.628Z,38
2017-02-28T12:18:30.133Z,38
2017-02-28T12:21:02.626Z,37.9
2017-02-28T12:23:35.116Z,38
2017-02-28T12:26:07.622Z,38
2017-02-28T12:28:40.139Z,38
2017-02-28T12:31:13.042Z,38.1
2017-02-28T12:33:45.551Z,38
2017-02-28T12:36:18.065Z,38
2017-02-28T12:38:50.565Z,38
2017-02-28T12:41:23.044Z,38
2017-02-28T12:43:55.539Z,38
2017-02-28T12:46:28.065Z,38
2017-02-28T12:49:00.569Z,38
2017-02-28T12:51:33.062Z,38
2017-02-28T12:54:05.550Z,38
2017-02-28T12:56:38.027Z,38
2017-02-28T12:59:10.729Z,38.1
2017-02-28T13:01:43.240Z,38.1
2017-02-28T13:04:16.157Z,38.1
2017-02-28T13:06:48.650Z,38.1
2017-02-28T13:09:21.137Z,38.2
2017-02-28T13:11:53.643Z,38.1
2017-02-28T13:14:26.143Z,38.1
2017-02-28T13:16:58.624Z,38
2017-02-28T13:19:31.116Z,34.4
2017-02-28T13:22:03.598Z,32.4
2017-02-28T13:24:36.100Z,32
2017-02-28T13:27:08.618Z,30.8
2017-02-28T13:29:41.112Z,30.9
2017-02-28T13:32:13.594Z,31.7
2017-02-28T13:34:46.104Z,30.6
2017-02-28T13:37:18.593Z,30.6
2017-02-28T13:39:51.085Z,30.4
2017-02-28T13:42:23.558Z,30.2
2017-02-28T13:44:56.051Z,30.2
2017-02-28T13:47:28.569Z,30.5
2017-02-28T13:50:01.053Z,31.1
2017-02-28T13:52:33.561Z,30.7
2017-02-28T13:55:06.051Z,29.9
2017-02-28T13:57:38.531Z,29.6
2017-02-28T14:00:11.012Z,29.4
2017-02-28T14:02:43.505Z,29.4
2017-02-28T14:05:16.001Z,29.6
2017-02-28T14:07:48.511Z,29.4
2017-02-28T14:10:21.008Z,29.2
2017-02-28T14:12:53.504Z,29.1
2017-02-28T14:15:25.995Z,29.1
2017-02-28T14:17:58.934Z,28.9
2017-02-28T14:20:31.420Z,29
2017-02-28T14:23:03.908Z,29.4
2017-02-28T14:25:37.243Z,31
2017-02-28T14:28:09.744Z,31.6
2017-02-28T14:30:42.245Z,32
2017-02-28T14:33:14.750Z,31.8
2017-02-28T14:35:47.258Z,30.7
2017-02-28T14:38:19.764Z,31.5
2017-02-28T14:40:52.255Z,29.1
2017-02-28T14:43:24.756Z,29.4
2017-02-28T14:45:57.255Z,30.6
2017-02-28T14:48:29.750Z,31.2
2017-02-28T14:51:02.245Z,31.2
2017-02-28T14:53:34.741Z,31.2
2017-02-28T14:56:07.231Z,31.1
2017-02-28T14:58:39.718Z,30.8
2017-02-28T15:01:12.231Z,30.6
2017-02-28T15:03:45.130Z,30.2
2017-02-28T15:06:17.639Z,28.5
2017-02-28T15:08:50.155Z,27.7
2017-02-28T15:11:22.660Z,27.6
2017-02-28T15:13:55.569Z,28
2017-02-28T15:16:28.093Z,27.8
2017-02-28T15:19:00.589Z,27.9
2017-02-28T15:21:33.077Z,27.9
2017-02-28T15:24:05.568Z,28.3
2017-02-28T15:26:38.470Z,27.3
2017-02-28T15:29:11.408Z,28.1
2017-02-28T15:31:43.931Z,29
2017-02-28T15:34:16.420Z,29.7
2017-02-28T15:36:48.906Z,30.1
2017-02-28T15:39:21.376Z,30.4
2017-02-28T15:41:54.295Z,30.5
2017-02-28T15:44:26.781Z,31
2017-02-28T15:46:59.265Z,31.2
2017-02-28T15:49:31.749Z,31.5
2017-02-28T15:52:04.325Z,31.6
2017-02-28T15:54:36.831Z,31.9
2017-02-28T15:57:09.361Z,32
2017-02-28T15:59:42.256Z,32.1
2017-02-28T16:02:14.735Z,32.3
2017-02-28T16:04:47.253Z,32.4
2017-02-28T16:07:19.741Z,32.6
2017-02-28T16:09:52.238Z,32.6
2017-02-28T16:12:25.352Z,32.7
2017-02-28T16:14:57.830Z,32.7
2017-02-28T16:17:30.362Z,32.7
2017-02-28T16:20:02.847Z,33
2017-02-28T16:22:35.339Z,32.9
2017-02-28T16:25:07.843Z,33
2017-02-28T16:27:40.352Z,33
2017-02-28T16:30:12.858Z,33
2017-02-28T16:32:45.336Z,33
2017-02-28T16:35:17.822Z,33.3
2017-02-28T16:37:50.329Z,33.1
2017-02-28T16:40:23.241Z,33.3
2017-02-28T16:42:56.160Z,33.1
2017-02-28T16:45:28.642Z,33.2
2017-02-28T16:48:01.165Z,33.4
2017-02-28T16:50:33.660Z,33.5
2017-02-28T16:53:06.790Z,34.2
2017-02-28T16:55:39.726Z,33.6
2017-02-28T16:58:12.215Z,33.2
2017-02-28T17:00:44.726Z,33.2
2017-02-28T17:03:17.221Z,34
2017-02-28T17:05:50.132Z,34.5
2017-02-28T17:08:22.639Z,33.7
2017-02-28T17:10:55.131Z,33.4
2017-02-28T17:13:27.615Z,33.8
2017-02-28T17:16:00.525Z,34.2
2017-02-28T17:18:33.003Z,34
2017-02-28T17:21:05.500Z,34
2017-02-28T17:23:37.982Z,34.2
2017-02-28T17:26:10.487Z,34.2
2017-02-28T17:28:42.974Z,34.2
2017-02-28T17:31:15.882Z,34.6
2017-02-28T17:33:48.387Z,34.7
2017-02-28T17:36:20.861Z,34.9
2017-02-28T17:38:53.354Z,35.1
2017-02-28T17:41:25.890Z,35.3
2017-02-28T17:43:58.380Z,35.2
2017-02-28T17:46:30.882Z,35.5
2017-02-28T17:49:03.378Z,35.6
2017-02-28T17:51:35.876Z,35.8
2017-02-28T17:54:08.349Z,35.7
2017-02-28T17:56:40.833Z,35.6
2017-02-28T17:59:13.325Z,35.6
2017-02-28T18:01:45.807Z,35.6
2017-02-28T18:04:18.303Z,35.6
2017-02-28T18:06:50.787Z,35.6
2017-02-28T18:09:23.282Z,35.7
2017-02-28T18:11:56.220Z,35.8
2017-02-28T18:14:28.715Z,35.5
2017-02-28T18:17:01.233Z,35
2017-02-28T18:19:34.150Z,35
2017-02-28T18:22:06.650Z,34.8
2017-02-28T18:24:39.129Z,34.8
2017-02-28T18:27:11.612Z,34.7
2017-02-28T18:29:44.114Z,34.4
2017-02-28T18:32:16.600Z,34.4
2017-02-28T18:34:49.524Z,34.3
2017-02-28T18:37:22.017Z,34.2
2017-02-28T18:39:54.508Z,34
2017-02-28T18:42:26.997Z,33.9
2017-02-28T18:44:59.499Z,33.9
2017-02-28T18:47:31.990Z,33.9
2017-02-28T18:50:04.477Z,33.9
2017-02-28T18:52:36.966Z,33.9
2017-02-28T18:55:09.905Z,33.7
2017-02-28T18:57:42.395Z,33.6
2017-02-28T19:00:14.866Z,33.6
2017-02-28T19:02:47.355Z,33.6
2017-02-28T19:05:19.846Z,33.5
2017-02-28T19:07:52.351Z,33.5
2017-02-28T19:10:25.263Z,33.4
2017-02-28T19:12:57.755Z,33.3
2017-02-28T19:15:30.648Z,33.3
2017-02-28T19:18:03.152Z,33.3
2017-02-28T19:20:35.662Z,33.7
2017-02-28T19:23:08.574Z,34
2017-02-28T19:25:41.066Z,34.1
2017-02-28T19:28:13.562Z,34.4
2017-02-28T19:30:46.063Z,34.4
2017-02-28T19:33:18.555Z,34.4
2017-02-28T19:35:51.466Z,34.4
2017-02-28T19:38:23.951Z,34.4
2017-02-28T19:40:56.894Z,34.5
2017-02-28T19:43:29.391Z,34.5
2017-02-28T19:46:01.873Z,34.6
2017-02-28T19:48:34.381Z,34.7
2017-02-28T19:51:06.869Z,34.7
2017-02-28T19:53:39.802Z,34.7
2017-02-28T19:56:12.327Z,34.9
2017-02-28T19:58:44.824Z,34.9
2017-02-28T20:01:17.333Z,34.9
2017-02-28T20:03:49.815Z,35
2017-02-28T20:06:22.331Z,35
2017-02-28T20:08:54.842Z,35.1
2017-02-28T20:11:27.326Z,35.1
2017-02-28T20:13:59.829Z,35.1
2017-02-28T20:16:32.741Z,35.2
2017-02-28T20:19:05.241Z,35.2
2017-02-28T20:21:37.780Z,35.2
2017-02-28T20:24:10.266Z,35.3
2017-02-28T20:26:42.763Z,35.3
2017-02-28T20:29:15.250Z,35.3
2017-02-28T20:31:47.736Z,35.3
2017-02-28T20:34:20.230Z,35.4
2017-02-28T20:36:53.150Z,35.4
2017-02-28T20:39:25.666Z,35.4
2017-02-28T20:41:58.614Z,35.4
2017-02-28T20:44:31.104Z,35.4
2017-02-28T20:47:04.017Z,35.5
2017-02-28T20:49:36.543Z,35.5
2017-02-28T20:52:09.886Z,35.5
2017-02-28T20:54:42.370Z,35.6
2017-02-28T20:57:14.849Z,35.6
2017-02-28T20:59:47.346Z,35.6
2017-02-28T21:02:19.829Z,35.5
2017-02-28T21:04:52.352Z,35.7
2017-02-28T21:07:25.275Z,35.6
2017-02-28T21:09:57.783Z,36
2017-02-28T21:12:30.277Z,36
2017-02-28T21:15:03.232Z,35.8
2017-02-28T21:17:36.164Z,35.9
2017-02-28T21:20:08.646Z,36
2017-02-28T21:22:41.141Z,35.9
2017-02-28T21:25:13.651Z,35.9
2017-02-28T21:27:46.151Z,35.7
2017-02-28T21:30:18.849Z,35.6
2017-02-28T21:32:51.340Z,35.6
2017-02-28T21:35:24.273Z,35.7
2017-02-28T21:37:57.625Z,35.8
2017-02-28T21:40:30.124Z,35.8
2017-02-28T21:43:03.489Z,35.9
2017-02-28T21:45:35.979Z,35.9
2017-02-28T21:48:08.494Z,35.9
2017-02-28T21:50:41.394Z,35.9
2017-02-28T21:53:13.877Z,36
2017-02-28T21:55:46.358Z,36
2017-02-28T21:58:18.871Z,36.1
2017-02-28T22:00:51.372Z,36
2017-02-28T22:03:23.883Z,36
2017-02-28T22:05:56.584Z,36.1
2017-02-28T22:08:29.084Z,36
2017-02-28T22:11:01.775Z,36
2017-02-28T22:13:34.288Z,36
2017-02-28T22:16:07.233Z,36.1
2017-02-28T22:18:39.720Z,36
2017-02-28T22:21:12.225Z,36
2017-02-28T22:23:44.733Z,36
2017-02-28T22:26:17.223Z,36.1
2017-02-28T22:28:49.705Z,36.2
2017-02-28T22:31:22.206Z,36.2
2017-02-28T22:33:54.693Z,36.3
2017-02-28T22:36:27.212Z,36.4
2017-02-28T22:38:59.737Z,36.4
2017-02-28T22:41:32.220Z,36.4
2017-02-28T22:44:04.750Z,36.4
2017-02-28T22:46:37.294Z,36.5
2017-02-28T22:49:10.401Z,36.4
2017-02-28T22:51:42.910Z,36.5
2017-02-28T22:54:15.397Z,36.5
2017-02-28T22:56:48.326Z,36.4
2017-02-28T22:59:20.807Z,36.4
2017-02-28T23:01:53.710Z,36.4
2017-02-28T23:04:26.204Z,36.4
2017-02-28T23:06:58.711Z,36.4
2017-02-28T23:09:31.222Z,36.4
2017-02-28T23:12:03.718Z,36.4
2017-02-28T23:14:36.220Z,36.4
2017-02-28T23:17:09.328Z,36.5
2017-02-28T23:19:41.818Z,36.4
2017-02-28T23:22:14.762Z,36.5
2017-02-28T23:24:47.271Z,36.8
2017-02-28T23:27:19.882Z,36.6
2017-02-28T23:29:53.031Z,36.7
2017-02-28T23:32:25.954Z,36.6
2017-02-28T23:34:58.482Z,36.8
2017-02-28T23:37:30.991Z,36.8
2017-02-28T23:40:03.920Z,36.7
2017-02-28T23:42:36.424Z,36.8
2017-02-28T23:45:08.940Z,36.8
2017-02-28T23:47:42.224Z,36.8
2017-02-28T23:50:15.146Z,36.8
2017-02-28T23:52:47.674Z,36.8
2017-02-28T23:55:20.679Z,36.8
2017-02-28T23:57:53.361Z,36.8
